createdAt,value
2018-02-05T00:00:11.049Z,20.37
2018-02-05T00:02:37.464Z,23.63
2018-02-05T00:05:03.856Z,22.63
2018-02-05T00:07:30.251Z,27.70
2018-02-05T00:09:56.606Z,27.07
2018-02-05T00:12:23.054Z,31.00
2018-02-05T00:14:49.461Z,32.23
2018-02-05T00:17:15.825Z,31.53
2018-02-05T00:19:42.225Z,28.37
2018-02-05T00:22:15.733Z,28.70
2018-02-05T00:24:42.112Z,30.63
2018-02-05T00:27:08.466Z,29.80
2018-02-05T00:29:34.896Z,29.97
2018-02-05T00:32:01.228Z,23.40
2018-02-05T00:34:27.604Z,22.10
2018-02-05T00:36:54.076Z,25.13
2018-02-05T00:39:20.435Z,24.37
2018-02-05T00:41:46.788Z,22.20
2018-02-05T00:44:13.212Z,21.33
2018-02-05T00:46:39.576Z,19.27
2018-02-05T00:49:05.916Z,20.83
2018-02-05T00:51:32.376Z,18.43
2018-02-05T00:53:58.732Z,19.73
2018-02-05T00:56:25.092Z,20.80
2018-02-05T00:58:51.495Z,19.57
2018-02-05T01:01:17.829Z,20.73
2018-02-05T01:03:44.221Z,19.30
2018-02-05T01:06:10.605Z,19.97
2018-02-05T01:08:36.971Z,23.20
2018-02-05T01:11:03.333Z,20.53
2018-02-05T01:13:29.686Z,22.10
2018-02-05T01:15:56.020Z,21.03
2018-02-05T01:18:22.436Z,24.40
2018-02-05T01:20:48.864Z,38.93
2018-02-05T01:23:15.232Z,61.30
2018-02-05T01:25:41.577Z,54.80
2018-02-05T01:28:07.963Z,54.13
2018-02-05T01:30:34.348Z,53.43
2018-02-05T01:33:00.758Z,46.97
2018-02-05T01:35:27.124Z,42.37
2018-02-05T01:37:53.485Z,42.27
2018-02-05T01:40:19.893Z,33.60
2018-02-05T01:42:46.240Z,32.63
2018-02-05T01:45:12.602Z,26.97
2018-02-05T01:47:38.984Z,26.23
2018-02-05T01:50:05.368Z,26.87
2018-02-05T01:52:31.698Z,29.50
2018-02-05T01:54:58.108Z,30.33
2018-02-05T01:57:24.438Z,39.33
2018-02-05T01:59:50.832Z,38.67
2018-02-05T02:02:17.207Z,40.77
2018-02-05T02:04:43.628Z,39.07
2018-02-05T02:07:10.013Z,40.40
2018-02-05T02:09:36.469Z,41.13
2018-02-05T02:12:02.916Z,39.00
2018-02-05T02:14:29.272Z,34.93
2018-02-05T02:16:55.657Z,32.40
2018-02-05T02:19:22.117Z,32.37
2018-02-05T02:21:48.521Z,28.10
2018-02-05T02:24:14.960Z,26.70
2018-02-05T02:26:41.409Z,28.47
2018-02-05T02:29:07.816Z,30.53
2018-02-05T02:31:34.182Z,30.47
2018-02-05T02:34:00.540Z,32.63
2018-02-05T02:36:26.944Z,28.07
2018-02-05T02:38:53.296Z,30.80
2018-02-05T02:41:19.689Z,34.43
2018-02-05T02:43:46.077Z,27.57
2018-02-05T02:46:12.492Z,25.97
2018-02-05T02:48:38.873Z,24.30
2018-02-05T02:51:05.261Z,19.40
2018-02-05T02:53:31.621Z,13.87
2018-02-05T02:55:58.021Z,14.93
2018-02-05T02:58:24.396Z,13.43
2018-02-05T03:00:50.728Z,13.07
2018-02-05T03:03:17.068Z,14.03
2018-02-05T03:05:43.448Z,12.00
2018-02-05T03:08:09.809Z,15.90
2018-02-05T03:10:36.160Z,11.73
2018-02-05T03:13:02.573Z,10.70
2018-02-05T03:15:28.949Z,11.87
2018-02-05T03:17:55.304Z,14.10
2018-02-05T03:20:21.697Z,9.87
2018-02-05T03:22:48.249Z,13.23
2018-02-05T03:25:14.607Z,11.17
2018-02-05T03:27:41.024Z,11.90
2018-02-05T03:30:07.401Z,11.77
2018-02-05T03:32:33.745Z,11.37
2018-02-05T03:35:00.140Z,11.70
2018-02-05T03:37:26.487Z,10.27
2018-02-05T03:39:52.900Z,10.47
2018-02-05T03:42:19.285Z,11.20
2018-02-05T03:44:45.664Z,12.10
2018-02-05T03:47:12.120Z,10.87
2018-02-05T03:49:38.505Z,12.67
2018-02-05T03:52:04.853Z,11.47
2018-02-05T03:54:31.272Z,11.90
2018-02-05T03:56:57.625Z,12.53
2018-02-05T03:59:24.034Z,12.83
2018-02-05T04:01:50.456Z,14.97
2018-02-05T04:04:16.809Z,15.43
2018-02-05T04:06:49.124Z,17.50
2018-02-05T04:09:15.652Z,14.53
2018-02-05T04:11:42.053Z,15.00
2018-02-05T04:14:08.496Z,13.37
2018-02-05T04:16:35.028Z,16.57
2018-02-05T04:19:01.482Z,17.07
2018-02-05T04:21:27.828Z,17.30
2018-02-05T04:23:54.197Z,18.43
2018-02-05T04:26:20.584Z,17.47
2018-02-05T04:28:47.128Z,16.80
2018-02-05T04:31:13.477Z,18.77
2018-02-05T04:33:39.882Z,18.37
2018-02-05T04:36:06.233Z,21.83
2018-02-05T04:38:32.596Z,22.77
2018-02-05T04:40:59.022Z,25.67
2018-02-05T04:43:25.388Z,23.00
2018-02-05T04:45:51.761Z,24.20
2018-02-05T04:48:18.149Z,30.10
2018-02-05T04:50:44.500Z,31.13
2018-02-05T04:53:10.889Z,27.87
2018-02-05T04:55:37.281Z,31.53
2018-02-05T04:58:03.620Z,31.30
2018-02-05T05:00:29.996Z,36.17
2018-02-05T05:02:56.384Z,40.47
2018-02-05T05:05:22.720Z,38.43
2018-02-05T05:07:49.096Z,37.67
2018-02-05T05:10:15.493Z,35.43
2018-02-05T05:12:41.844Z,24.37
2018-02-05T05:15:08.201Z,26.33
2018-02-05T05:17:34.589Z,31.50
2018-02-05T05:20:00.978Z,30.77
2018-02-05T05:22:27.319Z,30.93
2018-02-05T05:24:53.684Z,35.10
2018-02-05T05:27:20.025Z,35.30
2018-02-05T05:29:46.384Z,43.70
2018-02-05T05:32:12.769Z,45.70
2018-02-05T05:34:39.180Z,47.93
2018-02-05T05:37:05.520Z,66.77
2018-02-05T05:39:31.884Z,67.10
2018-02-05T05:41:58.273Z,71.33
2018-02-05T05:44:24.615Z,63.70
2018-02-05T05:46:51.013Z,67.93
2018-02-05T05:49:17.357Z,62.63
2018-02-05T05:51:43.725Z,52.27
2018-02-05T05:54:10.280Z,52.10
2018-02-05T05:56:36.646Z,47.80
2018-02-05T05:59:03.001Z,53.87
2018-02-05T06:01:29.367Z,52.20
2018-02-05T06:03:55.866Z,51.30
2018-02-05T06:06:22.221Z,49.53
2018-02-05T06:08:48.608Z,50.47
2018-02-05T06:11:15.084Z,35.17
2018-02-05T06:13:41.432Z,32.37
2018-02-05T06:16:07.805Z,37.10
2018-02-05T06:18:34.240Z,29.30
2018-02-05T06:21:00.631Z,29.50
2018-02-05T06:23:26.973Z,33.80
2018-02-05T06:25:53.332Z,32.07
2018-02-05T06:28:19.833Z,30.73
2018-02-05T06:30:46.222Z,28.60
2018-02-05T06:33:12.759Z,30.20
2018-02-05T06:35:39.149Z,31.23
2018-02-05T06:38:05.529Z,28.70
2018-02-05T06:40:32.094Z,32.10
2018-02-05T06:42:58.529Z,34.20
2018-02-05T06:45:24.886Z,28.47
2018-02-05T06:47:51.280Z,30.90
2018-02-05T06:50:29.801Z,31.07
2018-02-05T06:53:08.145Z,33.07
2018-02-05T06:55:46.553Z,30.83
2018-02-05T06:58:13.015Z,29.90
2018-02-05T07:00:39.405Z,28.27
2018-02-05T07:03:05.801Z,30.67
2018-02-05T07:05:32.141Z,29.90
2018-02-05T07:07:58.499Z,30.13
2018-02-05T07:10:24.841Z,31.57
2018-02-05T07:12:51.245Z,31.50
2018-02-05T07:15:17.644Z,51.50
2018-02-05T07:17:44.091Z,105.90
2018-02-05T07:20:10.589Z,36.23
2018-02-05T07:22:37.388Z,36.03
2018-02-05T07:25:04.526Z,22.87
2018-02-05T07:27:31.728Z,20.90
2018-02-05T07:29:58.089Z,18.70
2018-02-05T07:32:24.477Z,19.17
2018-02-05T07:34:50.897Z,24.33
2018-02-05T07:37:17.257Z,23.80
2018-02-05T07:39:43.616Z,21.10
2018-02-05T07:42:10.017Z,22.50
2018-02-05T07:44:36.398Z,20.40
2018-02-05T07:47:02.763Z,22.80
2018-02-05T07:49:29.188Z,22.53
2018-02-05T07:51:55.600Z,19.57
2018-02-05T07:54:21.961Z,20.97
2018-02-05T07:56:48.736Z,19.03
2018-02-05T07:59:15.146Z,24.27
2018-02-05T08:01:41.684Z,21.57
2018-02-05T08:04:08.173Z,22.47
2018-02-05T08:06:34.576Z,20.90
2018-02-05T08:09:01.041Z,19.83
2018-02-05T08:11:27.420Z,23.90
2018-02-05T08:13:53.794Z,20.30
2018-02-05T08:16:20.204Z,22.13
2018-02-05T08:18:46.672Z,23.90
2018-02-05T08:21:13.136Z,22.03
2018-02-05T08:23:39.613Z,24.20
2018-02-05T08:26:05.949Z,24.67
2018-02-05T08:28:32.371Z,23.87
2018-02-05T08:30:58.840Z,25.30
2018-02-05T08:33:25.240Z,21.83
2018-02-05T08:35:51.652Z,17.50
2018-02-05T08:38:18.872Z,16.17
2018-02-05T08:40:45.336Z,19.63
2018-02-05T08:43:11.814Z,17.77
2018-02-05T08:45:38.487Z,19.97
2018-02-05T08:48:04.864Z,19.40
2018-02-05T08:50:31.425Z,21.23
2018-02-05T08:52:58.518Z,20.27
2018-02-05T08:55:24.935Z,18.63
2018-02-05T08:57:51.557Z,21.17
2018-02-05T09:00:18.033Z,20.60
2018-02-05T09:02:44.413Z,19.67
2018-02-05T09:05:11.213Z,14.83
2018-02-05T09:07:37.823Z,21.63
2018-02-05T09:10:04.654Z,15.43
2018-02-05T09:12:31.900Z,19.70
2018-02-05T09:15:01.736Z,19.50
2018-02-05T09:17:29.145Z,18.37
2018-02-05T09:19:56.264Z,20.70
2018-02-05T09:22:22.638Z,20.73
2018-02-05T09:24:49.046Z,20.93
2018-02-05T09:27:15.505Z,20.47
2018-02-05T09:29:41.937Z,33.93
2018-02-05T09:32:08.371Z,23.70
2018-02-05T09:34:34.865Z,20.03
2018-02-05T09:37:02.281Z,17.87
2018-02-05T09:39:28.732Z,27.60
2018-02-05T09:41:55.285Z,155.47
2018-02-05T09:44:21.790Z,22.87
2018-02-05T09:46:49.583Z,368.80
2018-02-05T09:49:16.352Z,20.10
2018-02-05T09:51:42.837Z,26.03
2018-02-05T09:54:09.292Z,20.80
2018-02-05T09:56:35.833Z,24.87
2018-02-05T09:59:02.421Z,27.03
2018-02-05T10:01:28.780Z,34.30
2018-02-05T10:03:55.208Z,22.07
2018-02-05T10:06:21.587Z,25.63
2018-02-05T10:08:47.980Z,29.43
2018-02-05T10:11:14.512Z,23.10
2018-02-05T10:13:40.997Z,22.63
2018-02-05T10:16:07.401Z,21.03
2018-02-05T10:18:33.896Z,21.33
2018-02-05T10:21:00.265Z,24.10
2018-02-05T10:23:26.640Z,20.60
2018-02-05T10:25:53.182Z,25.00
2018-02-05T10:28:19.565Z,37.13
2018-02-05T10:30:45.976Z,18.73
2018-02-05T10:33:12.386Z,26.13
2018-02-05T10:35:38.865Z,21.00
2018-02-05T10:38:05.274Z,25.37
2018-02-05T10:40:31.687Z,21.40
2018-02-05T10:42:58.093Z,22.93
2018-02-05T10:45:24.544Z,19.73
2018-02-05T10:47:50.928Z,20.23
2018-02-05T10:50:17.308Z,16.77
2018-02-05T10:52:43.760Z,18.53
2018-02-05T10:55:10.100Z,19.60
2018-02-05T10:57:36.476Z,20.20
2018-02-05T11:00:03.022Z,17.60
2018-02-05T11:02:29.435Z,19.57
2018-02-05T11:04:55.817Z,33.20
2018-02-05T11:07:22.239Z,27.77
2018-02-05T11:09:48.592Z,16.67
2018-02-05T11:12:14.981Z,22.90
2018-02-05T11:14:41.503Z,16.10
2018-02-05T11:17:08.165Z,17.17
2018-02-05T11:19:34.533Z,27.03
2018-02-05T11:22:01.096Z,18.87
2018-02-05T11:24:27.890Z,18.93
2018-02-05T11:26:54.344Z,18.23
2018-02-05T11:29:20.953Z,17.40
2018-02-05T11:31:47.433Z,17.87
2018-02-05T11:34:13.885Z,21.53
2018-02-05T11:36:41.236Z,16.60
2018-02-05T11:39:07.692Z,20.10
2018-02-05T11:41:34.401Z,39.37
2018-02-05T11:44:00.860Z,32.47
2018-02-05T11:46:27.276Z,25.87
2018-02-05T11:48:53.715Z,21.67
2018-02-05T11:51:20.145Z,20.23
2018-02-05T11:53:46.623Z,22.83
2018-02-05T11:56:13.044Z,25.57
2018-02-05T11:58:39.628Z,24.20
2018-02-05T12:01:06.313Z,20.50
2018-02-05T12:03:32.801Z,21.17
2018-02-05T12:05:59.695Z,25.43
2018-02-05T12:08:26.247Z,27.03
2018-02-05T12:10:52.649Z,23.90
2018-02-05T12:13:19.152Z,26.27
2018-02-05T12:15:45.732Z,27.87
2018-02-05T12:18:12.140Z,20.93
2018-02-05T12:20:38.629Z,29.70
2018-02-05T12:23:05.054Z,24.30
2018-02-05T12:25:31.472Z,21.07
2018-02-05T12:27:57.888Z,21.53
2018-02-05T12:30:24.368Z,19.93
2018-02-05T12:32:50.744Z,19.67
2018-02-05T12:35:17.461Z,17.57
2018-02-05T12:37:44.785Z,19.60
2018-02-05T12:40:11.256Z,20.00
2018-02-05T12:42:37.749Z,20.13
2018-02-05T12:45:04.165Z,19.47
2018-02-05T12:47:30.539Z,28.97
2018-02-05T12:49:57.030Z,23.67
2018-02-05T12:52:23.380Z,22.60
2018-02-05T12:54:49.792Z,22.00
2018-02-05T12:57:16.257Z,20.73
2018-02-05T12:59:48.620Z,20.17
2018-02-05T13:02:15.217Z,19.07
2018-02-05T13:04:41.633Z,22.40
2018-02-05T13:07:08.059Z,19.43
2018-02-05T13:09:34.517Z,18.57
2018-02-05T13:12:00.860Z,22.97
2018-02-05T13:14:27.563Z,22.30
2018-02-05T13:16:54.073Z,20.87
2018-02-05T13:19:20.509Z,26.27
2018-02-05T13:21:46.904Z,20.20
2018-02-05T13:24:13.337Z,22.77
2018-02-05T13:26:39.701Z,17.93
2018-02-05T13:29:06.153Z,21.13
2018-02-05T13:31:32.662Z,20.30
2018-02-05T13:33:59.184Z,21.53
2018-02-05T13:36:25.693Z,20.50
2018-02-05T13:38:52.073Z,16.43
2018-02-05T13:41:18.456Z,17.63
2018-02-05T13:43:45.672Z,19.63
2018-02-05T13:46:12.382Z,19.03
2018-02-05T13:48:38.774Z,17.03
2018-02-05T13:51:05.475Z,19.57
2018-02-05T13:53:32.113Z,17.53
2018-02-05T13:55:59.580Z,17.83
2018-02-05T13:58:25.968Z,17.77
2018-02-05T14:00:53.979Z,19.47
2018-02-05T14:03:20.833Z,21.07
2018-02-05T14:05:47.472Z,22.57
2018-02-05T14:08:13.907Z,19.67
2018-02-05T14:10:40.920Z,17.07
2018-02-05T14:13:07.385Z,21.10
2018-02-05T14:15:33.796Z,16.30
2018-02-05T14:18:01.233Z,17.30
2018-02-05T14:20:27.701Z,18.40
2018-02-05T14:22:54.703Z,21.17
2018-02-05T14:25:21.284Z,19.63
2018-02-05T14:27:47.695Z,17.63
2018-02-05T14:30:14.189Z,19.70
2018-02-05T14:32:40.820Z,18.43
2018-02-05T14:35:07.208Z,23.27
2018-02-05T14:37:33.684Z,17.03
2018-02-05T14:40:00.330Z,18.20
2018-02-05T14:42:26.834Z,21.53
2018-02-05T14:44:53.316Z,21.13
2018-02-05T14:47:19.776Z,16.70
2018-02-05T14:49:46.146Z,21.93
2018-02-05T14:52:12.592Z,19.00
2018-02-05T14:54:39.026Z,20.67
2018-02-05T14:57:05.508Z,19.93
2018-02-05T14:59:31.917Z,19.03
2018-02-05T15:01:58.376Z,20.93
2018-02-05T15:04:24.786Z,26.30
2018-02-05T15:06:51.166Z,27.60
2018-02-05T15:09:17.637Z,30.63
2018-02-05T15:11:44.020Z,27.67
2018-02-05T15:14:10.450Z,29.13
2018-02-05T15:16:36.965Z,35.40
2018-02-05T15:19:03.752Z,33.40
2018-02-05T15:21:30.489Z,34.67
2018-02-05T15:23:56.932Z,38.23
2018-02-05T15:26:23.436Z,45.27
2018-02-05T15:28:50.132Z,47.33
2018-02-05T15:31:17.648Z,51.63
2018-02-05T15:33:44.612Z,49.90
2018-02-05T15:36:11.132Z,62.00
2018-02-05T15:38:37.616Z,65.43
2018-02-05T15:41:04.033Z,57.73
2018-02-05T15:43:30.485Z,69.43
2018-02-05T15:45:56.916Z,81.40
2018-02-05T15:48:23.348Z,73.27
2018-02-05T15:50:49.776Z,91.50
2018-02-05T15:53:16.217Z,108.30
2018-02-05T15:55:42.633Z,133.03
2018-02-05T15:58:09.422Z,144.17
2018-02-05T16:00:35.952Z,139.20
2018-02-05T16:03:02.361Z,147.13
2018-02-05T16:05:28.757Z,158.03
2018-02-05T16:07:55.200Z,177.03
2018-02-05T16:10:21.613Z,175.27
2018-02-05T16:12:48.017Z,207.47
2018-02-05T16:15:14.514Z,322.60
2018-02-05T16:17:40.911Z,287.90
2018-02-05T16:20:07.500Z,276.10
2018-02-05T16:22:33.929Z,258.07
2018-02-05T16:25:00.336Z,285.70
2018-02-05T16:27:26.720Z,309.20
2018-02-05T16:29:53.129Z,330.43
2018-02-05T16:32:19.542Z,322.40
2018-02-05T16:34:45.946Z,331.37
2018-02-05T16:37:12.334Z,328.47
2018-02-05T16:39:38.744Z,328.97
2018-02-05T16:42:05.124Z,312.97
2018-02-05T16:44:31.537Z,316.60
2018-02-05T16:46:57.955Z,322.27
2018-02-05T16:49:25.283Z,295.23
2018-02-05T16:51:51.678Z,345.47
2018-02-05T16:54:18.132Z,331.23
2018-02-05T16:56:44.547Z,352.90
2018-02-05T16:59:10.969Z,334.63
2018-02-05T17:01:37.422Z,328.57
2018-02-05T17:04:03.809Z,267.30
2018-02-05T17:06:30.164Z,244.90
2018-02-05T17:08:56.576Z,236.40
2018-02-05T17:11:23.190Z,240.47
2018-02-05T17:13:49.631Z,233.87
2018-02-05T17:16:16.087Z,248.40
2018-02-05T17:18:42.483Z,265.27
2018-02-05T17:21:08.841Z,273.73
2018-02-05T17:23:35.241Z,290.27
2018-02-05T17:26:02.426Z,324.53
2018-02-05T17:28:28.853Z,317.20
2018-02-05T17:30:55.208Z,311.17
2018-02-05T17:33:21.577Z,311.27
2018-02-05T17:35:48.081Z,303.93
2018-02-05T17:38:14.495Z,295.53
2018-02-05T17:40:40.949Z,274.13
2018-02-05T17:43:07.339Z,259.30
2018-02-05T17:45:33.731Z,243.43
2018-02-05T17:48:00.104Z,234.30
2018-02-05T17:50:27.193Z,198.83
2018-02-05T17:52:54.235Z,170.57
2018-02-05T17:55:20.653Z,175.87
2018-02-05T17:57:47.017Z,190.77
2018-02-05T18:00:14.322Z,225.63
2018-02-05T18:02:40.779Z,229.13
2018-02-05T18:05:08.141Z,219.63
2018-02-05T18:07:34.510Z,208.03
2018-02-05T18:10:00.867Z,208.33
2018-02-05T18:12:27.281Z,203.00
2018-02-05T18:14:53.671Z,180.90
2018-02-05T18:17:20.882Z,185.03
2018-02-05T18:19:47.301Z,182.10
2018-02-05T18:22:13.672Z,165.10
2018-02-05T18:24:40.024Z,165.17
2018-02-05T18:27:07.067Z,154.70
2018-02-05T18:29:33.442Z,153.17
2018-02-05T18:31:59.838Z,144.77
2018-02-05T18:34:26.242Z,140.40
2018-02-05T18:36:52.619Z,186.57
2018-02-05T18:39:19.013Z,213.13
2018-02-05T18:41:45.937Z,231.43
2018-02-05T18:44:12.294Z,219.30
2018-02-05T18:46:38.742Z,198.23
2018-02-05T18:49:05.162Z,176.87
2018-02-05T18:51:31.521Z,179.23
2018-02-05T18:53:57.962Z,162.87
2018-02-05T18:56:36.632Z,156.13
2018-02-05T18:59:02.992Z,141.83
2018-02-05T19:01:30.428Z,143.00
2018-02-05T19:03:56.792Z,141.30
2018-02-05T19:06:23.153Z,152.40
2018-02-05T19:08:49.522Z,155.43
2018-02-05T19:11:16.038Z,163.40
2018-02-05T19:13:42.470Z,203.90
2018-02-05T19:16:08.889Z,189.87
2018-02-05T19:18:35.358Z,208.17
2018-02-05T19:21:01.765Z,214.63
2018-02-05T19:23:29.021Z,241.10
2018-02-05T19:25:55.477Z,243.97
2018-02-05T19:28:21.912Z,236.07
2018-02-05T19:30:48.354Z,224.70
2018-02-05T19:33:14.943Z,229.13
2018-02-05T19:35:42.360Z,223.00
2018-02-05T19:38:08.725Z,229.93
2018-02-05T19:40:35.077Z,237.70
2018-02-05T19:43:01.454Z,242.60
2018-02-05T19:45:27.910Z,233.73
2018-02-05T19:47:54.284Z,245.33
2018-02-05T19:50:20.671Z,250.23
2018-02-05T19:52:47.089Z,249.27
2018-02-05T19:55:13.478Z,277.63
2018-02-05T19:57:39.828Z,291.97
2018-02-05T20:00:07.246Z,273.63
2018-02-05T20:02:34.414Z,263.20
2018-02-05T20:05:01.681Z,257.23
2018-02-05T20:07:28.870Z,256.83
2018-02-05T20:09:55.274Z,246.57
2018-02-05T20:12:22.041Z,229.93
2018-02-05T20:14:48.444Z,211.47
2018-02-05T20:17:21.817Z,190.50
2018-02-05T20:19:48.236Z,193.23
2018-02-05T20:22:15.334Z,184.67
2018-02-05T20:24:41.701Z,188.17
2018-02-05T20:27:09.071Z,181.13
2018-02-05T20:29:35.529Z,191.17
2018-02-05T20:32:02.858Z,195.07
2018-02-05T20:34:29.357Z,190.97
2018-02-05T20:36:55.783Z,185.67
2018-02-05T20:39:23.096Z,193.47
2018-02-05T20:41:49.494Z,177.57
2018-02-05T20:44:15.902Z,173.73
2018-02-05T20:46:42.276Z,153.90
2018-02-05T20:49:08.654Z,154.67
2018-02-05T20:51:35.084Z,148.40
2018-02-05T20:54:01.491Z,145.03
2018-02-05T20:56:28.926Z,129.20
2018-02-05T20:58:55.380Z,117.23
2018-02-05T21:01:21.737Z,121.20
2018-02-05T21:03:48.145Z,139.17
2018-02-05T21:06:14.941Z,102.67
2018-02-05T21:08:43.130Z,85.67
2018-02-05T21:11:11.466Z,72.50
2018-02-05T21:13:39.640Z,79.60
2018-02-05T21:16:06.409Z,78.53
2018-02-05T21:18:32.836Z,99.50
2018-02-05T21:20:59.226Z,103.53
2018-02-05T21:23:25.608Z,95.77
2018-02-05T21:25:51.986Z,88.63
2018-02-05T21:28:18.386Z,74.17
2018-02-05T21:30:44.833Z,63.57
2018-02-05T21:33:11.230Z,64.63
2018-02-05T21:35:37.622Z,105.37
2018-02-05T21:38:03.994Z,73.07
2018-02-05T21:40:30.400Z,63.33
2018-02-05T21:42:56.782Z,73.37
2018-02-05T21:45:23.128Z,83.80
2018-02-05T21:47:49.556Z,132.40
2018-02-05T21:50:16.057Z,171.67
2018-02-05T21:52:42.557Z,153.67
2018-02-05T21:55:09.088Z,113.50
2018-02-05T21:57:35.460Z,102.50
2018-02-05T22:00:01.837Z,93.20
2018-02-05T22:02:28.297Z,78.43
2018-02-05T22:04:54.672Z,60.77
2018-02-05T22:07:21.034Z,54.97
2018-02-05T22:09:47.417Z,56.37
2018-02-05T22:12:13.811Z,63.50
2018-02-05T22:14:40.280Z,59.93
2018-02-05T22:17:06.682Z,61.27
2018-02-05T22:19:33.124Z,61.80
2018-02-05T22:21:59.480Z,55.87
2018-02-05T22:24:25.888Z,49.77
2018-02-05T22:26:52.292Z,53.03
2018-02-05T22:29:18.638Z,49.13
2018-02-05T22:31:52.752Z,52.07
2018-02-05T22:34:19.126Z,47.90
2018-02-05T22:36:45.497Z,51.43
2018-02-05T22:39:11.913Z,44.17
2018-02-05T22:41:38.299Z,42.70
2018-02-05T22:44:04.661Z,41.97
2018-02-05T22:46:31.081Z,40.80
2018-02-05T22:48:57.438Z,42.67
2018-02-05T22:51:23.800Z,38.60
2018-02-05T22:53:51.209Z,38.77
2018-02-05T22:56:17.576Z,37.93
2018-02-05T22:58:43.968Z,40.90
2018-02-05T23:01:10.341Z,38.90
2018-02-05T23:03:36.853Z,40.03
2018-02-05T23:06:03.269Z,37.93
2018-02-05T23:08:29.633Z,41.47
2018-02-05T23:10:56.425Z,42.37
2018-02-05T23:13:23.021Z,44.80
2018-02-05T23:15:49.417Z,55.73
2018-02-05T23:18:15.911Z,52.57
2018-02-05T23:20:42.314Z,43.80
2018-02-05T23:23:08.733Z,40.37
2018-02-05T23:25:35.129Z,38.13
2018-02-05T23:28:01.561Z,36.87
2018-02-05T23:30:27.929Z,38.47
2018-02-05T23:32:54.281Z,41.63
2018-02-05T23:35:20.690Z,43.17
2018-02-05T23:37:47.051Z,35.67
2018-02-05T23:40:13.408Z,36.73
2018-02-05T23:42:39.804Z,38.60
2018-02-05T23:45:06.147Z,37.37
2018-02-05T23:47:32.521Z,43.93
2018-02-05T23:49:58.893Z,41.80
2018-02-05T23:52:25.260Z,41.27
2018-02-05T23:54:51.637Z,41.13
2018-02-05T23:57:18.001Z,44.83
2018-02-05T23:59:44.340Z,44.20
